Paradise — 3FOB5 — position and weather

sailwx.info

Track history (hours):
 
Tides and Currents Weather Stations Pressure Air Temp Water Temp Dewpoint Dewpoint Depression Visibility Wind Speed Wind Dir Waves Ship Positions

Paradise

Operator: Carnival Cruise Lines

Last reported at 2018-May-19 23:46 UTC. Time now 2018-May-20 21:15 UTC.
Position N 20°42' W 086°51'.

Type: Passenger vessel. MMSI: 355833000.

Date/timePositionNaut miles runAvg speedWind from/ knotsBaromVisibWave heightAir tempDewpointWater temp
2018-May-19 23:46N 20°42' W 086°51'414.3
2018-May-19 23:30N 20°39' W 086°53'714.4
2018-May-19 23:00N 20°33' W 086°57'5 9.0
2018-May-19 22:30N 20°29' W 086°59'0 0.2
2018-May-19 21:59N 20°29' W 086°59'0 0.0
2018-May-19 21:29N 20°29' W 086°59'0 0.0
2018-May-19 20:59N 20°29' W 086°59'0 0.0
2018-May-19 20:29N 20°29' W 086°59'0 0.0
2018-May-19 19:56N 20°29' W 086°59'0 0.0
2018-May-19 19:29N 20°29' W 086°59'0 0.0
2018-May-19 18:59N 20°29' W 086°59'0 0.0
2018-May-19 18:29N 20°29' W 086°59'0 0.0
2018-May-19 17:59N 20°29' W 086°59'0 0.0
2018-May-19 12:26N 20°29' W 086°59'0 0.0
2018-May-19 11:56N 20°29' W 086°59'0 0.0
2018-May-19 11:29N 20°29' W 086°59'2 3.8
2018-May-19 11:00N 20°30' W 086°59'510.3
2018-May-19 10:30N 20°35' W 086°56'38913.6
2018-May-18 06:00N 26°18' W 083°36'303 6.4 120 / 151013.0 23.020.127.0
2018-May-16 07:00N 21°48' W 086°06'8216.8 120 / 151012.010.8 26.023.227.0
2018-May-16 02:06N 20°39' W 086°53'216.1
2018-May-16 02:00N 20°38' W 086°55'815.1
2018-May-16 01:30N 20°32' W 086°59'3 6.3
2018-May-16 00:59N 20°29' W 086°59'0 0.0
2018-May-16 00:29N 20°29' W 086°59'0 0.0
2018-May-15 23:59N 20°29' W 086°59'0 0.0
2018-May-15 23:29N 20°29' W 086°59'0 0.0
2018-May-15 22:59N 20°29' W 086°59'0 0.0
2018-May-15 22:29N 20°29' W 086°59'0 0.0
2018-May-15 21:56N 20°29' W 086°59'0 0.0
2018-May-15 21:29N 20°29' W 086°59'0 0.0
2018-May-15 20:59N 20°29' W 086°59'0 0.0
2018-May-15 20:29N 20°29' W 086°59'0 0.0
2018-May-15 19:59N 20°29' W 086°59'0 0.0
2018-May-15 19:26N 20°29' W 086°59'0 0.0
2018-May-15 18:59N 20°29' W 086°59'0 0.0
2018-May-15 18:29N 20°29' W 086°59'0 0.0
2018-May-15 17:53N 20°29' W 086°59'0 0.0
2018-May-15 17:29N 20°29' W 086°59'0 0.0
2018-May-15 16:59N 20°29' W 086°59'0 0.0
2018-May-15 16:26N 20°29' W 086°59'0 0.0
2018-May-15 15:59N 20°29' W 086°59'0 0.0
2018-May-15 15:26N 20°29' W 086°59'2 4.5
2018-May-15 15:00N 20°30' W 086°60'713.0
2018-May-15 14:30N 20°26' W 087°05'8719.2
2018-May-15 10:00N 19°00' W 086°54'7919.7 130 / 141010.010.8 28.023.927.0
2018-May-15 06:00N 17°42' W 086°42'45 2.4 120 / 251011.010.8 27.024.327.0
2018-May-14 11:00N 17°00' W 086°24'8020.0 100 / 251010.0 28.023.928.0
2018-May-14 07:00N 18°18' W 086°06'57818.6 120 / 251012.010.8 25.022.227.0
2018-May-12 23:56N 27°31' W 083°03'914.4
2018-May-12 23:18N 27°36' W 082°54'414.4
2018-May-12 23:00N 27°36' W 082°49'815.9
2018-May-12 22:30N 27°37' W 082°41'715.1
2018-May-12 22:00N 27°41' W 082°34'714.1
2018-May-12 21:30N 27°47' W 082°30'612.3
2018-May-12 21:00N 27°53' W 082°26'3 6.7
2018-May-12 20:30N 27°56' W 082°27'1 1.3
2018-May-12 19:59N 27°57' W 082°27'0 0.0
2018-May-12 19:29N 27°57' W 082°27'0 0.0
2018-May-12 18:59N 27°57' W 082°27'0 0.0
2018-May-12 18:23N 27°57' W 082°27'0 0.0
2018-May-12 17:59N 27°57' W 082°27'0 0.0
2018-May-12 17:29N 27°57' W 082°27'0 0.0
2018-May-12 16:59N 27°57' W 082°27'0 0.0
2018-May-12 16:26N 27°57' W 082°27'0 0.0
2018-May-12 15:59N 27°57' W 082°27'0 0.0
2018-May-12 15:29N 27°57' W 082°27'0 0.0
2018-May-12 14:56N 27°57' W 082°27'0 0.0
2018-May-12 14:29N 27°57' W 082°27'0 0.0
2018-May-12 13:59N 27°57' W 082°27'0 0.0
2018-May-12 13:29N 27°57' W 082°27'0 0.0
2018-May-12 12:59N 27°57' W 082°27'0 0.0
2018-May-12 12:29N 27°57' W 082°27'0 0.0
2018-May-12 11:59N 27°57' W 082°27'0 0.0
2018-May-12 11:29N 27°57' W 082°27'0 0.0
2018-May-12 10:59N 27°57' W 082°27'1 1.7
2018-May-12 10:31N 27°56' W 082°27'2 4.6
2018-May-12 10:00N 27°54' W 082°26'5 9.8
2018-May-12 09:30N 27°49' W 082°27'612.4
2018-May-12 09:01N 27°44' W 082°32'714.3
2018-May-12 08:30N 27°39' W 082°37'714.4
2018-May-12 08:00N 27°36' W 082°45'814.5
2018-May-12 07:24N 27°36' W 082°54'612.5
2018-May-12 06:55N 27°34' W 083°01'511.9
2018-May-12 06:30N 27°30' W 083°03'713.5
2018-May-12 06:00N 27°24' W 083°07'917.7
2018-May-12 05:30N 27°16' W 083°11'44515.9
2018-May-11 01:27N 20°40' W 086°52'715.8
2018-May-11 01:00N 20°34' W 086°57'510.8
2018-May-11 00:31N 20°29' W 086°59'0 0.9
2018-May-10 23:59N 20°29' W 086°59'0 0.0
2018-May-10 23:29N 20°29' W 086°59'0 0.0
2018-May-10 22:59N 20°29' W 086°59'0 0.0
2018-May-10 22:29N 20°29' W 086°59'0 0.0
2018-May-10 21:59N 20°29' W 086°59'0 0.0
2018-May-10 21:29N 20°29' W 086°59'0 0.0
2018-May-10 20:59N 20°29' W 086°59'0 0.0
2018-May-10 20:29N 20°29' W 086°59'0 0.0
2018-May-10 19:59N 20°29' W 086°59'0 0.0
2018-May-10 19:29N 20°29' W 086°59'0 0.0
2018-May-10 18:59N 20°29' W 086°59'0 0.0
2018-May-10 18:29N 20°29' W 086°59'0 0.0
2018-May-10 17:59N 20°29' W 086°59'0 0.0
2018-May-10 17:29N 20°29' W 086°59'0 0.0
2018-May-10 16:59N 20°29' W 086°59'0 0.0
2018-May-10 16:23N 20°29' W 086°59'0 0.0
2018-May-10 15:56N 20°29' W 086°59'0 0.0
2018-May-10 15:29N 20°29' W 086°59'0 0.0
2018-May-10 14:59N 20°29' W 086°59'0 0.0
2018-May-10 14:29N 20°29' W 086°59'0 0.0
2018-May-10 13:59N 20°29' W 086°59'0 0.4
2018-May-10 13:29N 20°29' W 086°59'2 5.0
2018-May-10 13:00N 20°31' W 086°59'5 9.5
2018-May-10 12:30N 20°35' W 086°56'  
Track history (hours):
 
Tides and Currents Weather Stations Pressure Air Temp Water Temp Dewpoint Dewpoint Depression Visibility Wind Speed Wind Dir Waves Ship Positions

Paradise

Operator: Carnival Cruise Lines

Last reported at 2018-May-19 23:46 UTC. Time now 2018-May-20 21:15 UTC.
Position N 20°42' W 086°51'.

Type: Passenger vessel. MMSI: 355833000.

Date/timePositionNaut miles runAvg speedWind from/ knotsBaromVisibWave heightAir tempDewpointWater temp
2018-May-19 23:46N 20°42' W 086°51'414.3
2018-May-19 23:30N 20°39' W 086°53'714.4
2018-May-19 23:00N 20°33' W 086°57'5 9.0
2018-May-19 22:30N 20°29' W 086°59'0 0.2
2018-May-19 21:59N 20°29' W 086°59'0 0.0
2018-May-19 21:29N 20°29' W 086°59'0 0.0
2018-May-19 20:59N 20°29' W 086°59'0 0.0
2018-May-19 20:29N 20°29' W 086°59'0 0.0
2018-May-19 19:56N 20°29' W 086°59'0 0.0
2018-May-19 19:29N 20°29' W 086°59'0 0.0
2018-May-19 18:59N 20°29' W 086°59'0 0.0
2018-May-19 18:29N 20°29' W 086°59'0 0.0
2018-May-19 17:59N 20°29' W 086°59'0 0.0
2018-May-19 12:26N 20°29' W 086°59'0 0.0
2018-May-19 11:56N 20°29' W 086°59'0 0.0
2018-May-19 11:29N 20°29' W 086°59'2 3.8
2018-May-19 11:00N 20°30' W 086°59'510.3
2018-May-19 10:30N 20°35' W 086°56'38913.6
2018-May-18 06:00N 26°18' W 083°36'303 6.4 120 / 151013.0 23.020.127.0
2018-May-16 07:00N 21°48' W 086°06'8216.8 120 / 151012.010.8 26.023.227.0
2018-May-16 02:06N 20°39' W 086°53'216.1
2018-May-16 02:00N 20°38' W 086°55'815.1
2018-May-16 01:30N 20°32' W 086°59'3 6.3
2018-May-16 00:59N 20°29' W 086°59'0 0.0
2018-May-16 00:29N 20°29' W 086°59'0 0.0
2018-May-15 23:59N 20°29' W 086°59'0 0.0
2018-May-15 23:29N 20°29' W 086°59'0 0.0
2018-May-15 22:59N 20°29' W 086°59'0 0.0
2018-May-15 22:29N 20°29' W 086°59'0 0.0
2018-May-15 21:56N 20°29' W 086°59'0 0.0
2018-May-15 21:29N 20°29' W 086°59'0 0.0
2018-May-15 20:59N 20°29' W 086°59'0 0.0
2018-May-15 20:29N 20°29' W 086°59'0 0.0
2018-May-15 19:59N 20°29' W 086°59'0 0.0
2018-May-15 19:26N 20°29' W 086°59'0 0.0
2018-May-15 18:59N 20°29' W 086°59'0 0.0
2018-May-15 18:29N 20°29' W 086°59'0 0.0
2018-May-15 17:53N 20°29' W 086°59'0 0.0
2018-May-15 17:29N 20°29' W 086°59'0 0.0
2018-May-15 16:59N 20°29' W 086°59'0 0.0
2018-May-15 16:26N 20°29' W 086°59'0 0.0
2018-May-15 15:59N 20°29' W 086°59'0 0.0
2018-May-15 15:26N 20°29' W 086°59'2 4.5
2018-May-15 15:00N 20°30' W 086°60'713.0
2018-May-15 14:30N 20°26' W 087°05'8719.2
2018-May-15 10:00N 19°00' W 086°54'7919.7 130 / 141010.010.8 28.023.927.0
2018-May-15 06:00N 17°42' W 086°42'45 2.4 120 / 251011.010.8 27.024.327.0
2018-May-14 11:00N 17°00' W 086°24'8020.0 100 / 251010.0 28.023.928.0
2018-May-14 07:00N 18°18' W 086°06'57818.6 120 / 251012.010.8 25.022.227.0
2018-May-12 23:56N 27°31' W 083°03'914.4
2018-May-12 23:18N 27°36' W 082°54'414.4
2018-May-12 23:00N 27°36' W 082°49'815.9
2018-May-12 22:30N 27°37' W 082°41'715.1
2018-May-12 22:00N 27°41' W 082°34'714.1
2018-May-12 21:30N 27°47' W 082°30'612.3
2018-May-12 21:00N 27°53' W 082°26'3 6.7
2018-May-12 20:30N 27°56' W 082°27'1 1.3
2018-May-12 19:59N 27°57' W 082°27'0 0.0
2018-May-12 19:29N 27°57' W 082°27'0 0.0
2018-May-12 18:59N 27°57' W 082°27'0 0.0
2018-May-12 18:23N 27°57' W 082°27'0 0.0
2018-May-12 17:59N 27°57' W 082°27'0 0.0
2018-May-12 17:29N 27°57' W 082°27'0 0.0
2018-May-12 16:59N 27°57' W 082°27'0 0.0
2018-May-12 16:26N 27°57' W 082°27'0 0.0
2018-May-12 15:59N 27°57' W 082°27'0 0.0
2018-May-12 15:29N 27°57' W 082°27'0 0.0
2018-May-12 14:56N 27°57' W 082°27'0 0.0
2018-May-12 14:29N 27°57' W 082°27'0 0.0
2018-May-12 13:59N 27°57' W 082°27'0 0.0
2018-May-12 13:29N 27°57' W 082°27'0 0.0
2018-May-12 12:59N 27°57' W 082°27'0 0.0
2018-May-12 12:29N 27°57' W 082°27'0 0.0
2018-May-12 11:59N 27°57' W 082°27'0 0.0
2018-May-12 11:29N 27°57' W 082°27'0 0.0
2018-May-12 10:59N 27°57' W 082°27'1 1.7
2018-May-12 10:31N 27°56' W 082°27'2 4.6
2018-May-12 10:00N 27°54' W 082°26'5 9.8
2018-May-12 09:30N 27°49' W 082°27'612.4
2018-May-12 09:01N 27°44' W 082°32'714.3
2018-May-12 08:30N 27°39' W 082°37'714.4
2018-May-12 08:00N 27°36' W 082°45'814.5
2018-May-12 07:24N 27°36' W 082°54'612.5
2018-May-12 06:55N 27°34' W 083°01'511.9
2018-May-12 06:30N 27°30' W 083°03'713.5
2018-May-12 06:00N 27°24' W 083°07'917.7
2018-May-12 05:30N 27°16' W 083°11'44515.9
2018-May-11 01:27N 20°40' W 086°52'715.8
2018-May-11 01:00N 20°34' W 086°57'510.8
2018-May-11 00:31N 20°29' W 086°59'0 0.9
2018-May-10 23:59N 20°29' W 086°59'0 0.0
2018-May-10 23:29N 20°29' W 086°59'0 0.0
2018-May-10 22:59N 20°29' W 086°59'0 0.0
2018-May-10 22:29N 20°29' W 086°59'0 0.0
2018-May-10 21:59N 20°29' W 086°59'0 0.0
2018-May-10 21:29N 20°29' W 086°59'0 0.0
2018-May-10 20:59N 20°29' W 086°59'0 0.0
2018-May-10 20:29N 20°29' W 086°59'0 0.0
2018-May-10 19:59N 20°29' W 086°59'0 0.0
2018-May-10 19:29N 20°29' W 086°59'0 0.0
2018-May-10 18:59N 20°29' W 086°59'0 0.0
2018-May-10 18:29N 20°29' W 086°59'0 0.0
2018-May-10 17:59N 20°29' W 086°59'0 0.0
2018-May-10 17:29N 20°29' W 086°59'0 0.0
2018-May-10 16:59N 20°29' W 086°59'0 0.0
2018-May-10 16:23N 20°29' W 086°59'0 0.0
2018-May-10 15:56N 20°29' W 086°59'0 0.0
2018-May-10 15:29N 20°29' W 086°59'0 0.0
2018-May-10 14:59N 20°29' W 086°59'0 0.0
2018-May-10 14:29N 20°29' W 086°59'0 0.0
2018-May-10 13:59N 20°29' W 086°59'0 0.4
2018-May-10 13:29N 20°29' W 086°59'2 5.0
2018-May-10 13:00N 20°31' W 086°59'5 9.5
2018-May-10 12:30N 20°35' W 086°56'  

Dump ship's entire track history